This is the latest recevied weather packets stored in our database for station/object K6FAK-13. If no packets are shown the sender has not sent any weather packets the latest 10 day(s).
| Time | Temp. | Humidity | Pressure | Rain* | Wind** | Luminosity | Snow |
|---|---|---|---|---|---|---|---|
| 1777688951 | 22.78° C | 67% | 1012.6 hPa | 0 mm | - | 21 W/m² | - |
| 1777688647 | 22.78° C | 66% | 1012.6 hPa | 0 mm | - | 26 W/m² | - |
| 1777688041 | 23.33° C | 65% | 1012.4 hPa | 0 mm | - | 35 W/m² | - |
| 1777687738 | 23.89° C | 65% | 1012.7 hPa | 0 mm | - | 47 W/m² | - |
| 1777674102 | 26.11° C | 56% | 1014.6 hPa | 0 mm | - | 592 W/m² | - |
| 1777673799 | 26.67° C | 56% | 1014.5 hPa | 0 mm | - | 557 W/m² | - |
| 1777673496 | 26.11° C | 56% | 1014.6 hPa | 0 mm | - | 576 W/m² | - |
| 1777673194 | 26.11° C | 57% | 1014.7 hPa | 0 mm | - | 586 W/m² | - |
| 1777672891 | 26.67° C | 57% | 1014.6 hPa | 0 mm | - | 573 W/m² | - |
| 1777672588 | 26.11° C | 56% | 1014.7 hPa | 0 mm | - | 562 W/m² | - |
| 1777672283 | 26.11° C | 57% | 1015 hPa | 0 mm | - | 592 W/m² | - |
| 1777671067 | 26.67° C | 55% | 1015.1 hPa | 0 mm | - | 674 W/m² | - |
| 1777670764 | 26.11° C | 54% | 1015 hPa | 0 mm | - | 655 W/m² | - |
| 1777670460 | 26.11° C | 55% | 1015.1 hPa | 0 mm | - | 723 W/m² | - |
| 1777670157 | 25.56° C | 56% | 1015.3 hPa | 0 mm | - | 737 W/m² | - |
| 1777669855 | 26.11° C | 55% | 1015.2 hPa | 0 mm | - | 654 W/m² | - |
| 1777669551 | 26.11° C | 54% | 1015.2 hPa | 0 mm | - | 631 W/m² | - |
| 1777668944 | 25.56° C | 55% | 1015.4 hPa | 0 mm | - | 760 W/m² | - |
| 1777668642 | 25° C | 55% | 1015.2 hPa | 0 mm | - | 676 W/m² | - |
| 1777667731 | 25° C | 58% | 1015.3 hPa | 0 mm | - | 676 W/m² | - |
| 1777667429 | 25.56° C | 57% | 1015.5 hPa | 0 mm | - | 713 W/m² | - |
| 1777667126 | 25° C | 57% | 1015.7 hPa | 0 mm | - | 728 W/m² | - |
| 1777666822 | 26.11° C | 55% | 1015.6 hPa | 0 mm | - | 713 W/m² | - |
| 1777666520 | 24.44° C | 59% | 1015.5 hPa | 0 mm | - | 738 W/m² | - |
| 1777666216 | 23.89° C | 60% | 1015.8 hPa | 0 mm | - | 698 W/m² | - |
* Rain latest hour (hover to see other rain measurements)
** Current wind speed in m/s (hover to see current wind gust speed)